sensor_id;sensor_type;location;lat;lon;timestamp;P1;durP1;ratioP1;P2;durP2;ratioP2
68633;SDS011;55625;47.072;22.192;2023-11-21T00:00:31;1.70;;;1.27;;
68633;SDS011;55625;47.072;22.192;2023-11-21T00:02:57;1.90;;;1.30;;
68633;SDS011;55625;47.072;22.192;2023-11-21T00:05:23;1.58;;;0.82;;
68633;SDS011;55625;47.072;22.192;2023-11-21T00:07:49;0.95;;;0.47;;
68633;SDS011;55625;47.072;22.192;2023-11-21T00:10:15;0.90;;;0.20;;
68633;SDS011;55625;47.072;22.192;2023-11-21T00:12:41;2.60;;;1.83;;
68633;SDS011;55625;47.072;22.192;2023-11-21T00:15:07;1.17;;;0.60;;
68633;SDS011;55625;47.072;22.192;2023-11-21T00:17:36;1.40;;;0.75;;
68633;SDS011;55625;47.072;22.192;2023-11-21T00:20:05;2.75;;;1.35;;
68633;SDS011;55625;47.072;22.192;2023-11-21T00:22:35;2.42;;;0.93;;
68633;SDS011;55625;47.072;22.192;2023-11-21T00:25:01;0.97;;;0.40;;
68633;SDS011;55625;47.072;22.192;2023-11-21T00:27:29;2.53;;;1.15;;
68633;SDS011;55625;47.072;22.192;2023-11-21T00:29:55;1.85;;;0.82;;
68633;SDS011;55625;47.072;22.192;2023-11-21T00:32:21;1.73;;;1.08;;
68633;SDS011;55625;47.072;22.192;2023-11-21T00:34:47;1.40;;;0.50;;
68633;SDS011;55625;47.072;22.192;2023-11-21T00:37:12;2.15;;;0.73;;
68633;SDS011;55625;47.072;22.192;2023-11-21T00:39:39;1.45;;;1.02;;
68633;SDS011;55625;47.072;22.192;2023-11-21T00:42:05;1.53;;;0.80;;
68633;SDS011;55625;47.072;22.192;2023-11-21T00:44:31;0.90;;;0.22;;
68633;SDS011;55625;47.072;22.192;2023-11-21T00:46:59;1.15;;;0.57;;
68633;SDS011;55625;47.072;22.192;2023-11-21T00:49:25;2.10;;;0.50;;
68633;SDS011;55625;47.072;22.192;2023-11-21T00:51:50;2.77;;;1.07;;
68633;SDS011;55625;47.072;22.192;2023-11-21T00:54:16;1.45;;;0.70;;
68633;SDS011;55625;47.072;22.192;2023-11-21T00:56:42;1.42;;;1.23;;
68633;SDS011;55625;47.072;22.192;2023-11-21T00:59:08;1.55;;;0.85;;
68633;SDS011;55625;47.072;22.192;2023-11-21T01:01:35;2.03;;;1.03;;
68633;SDS011;55625;47.072;22.192;2023-11-21T01:04:02;2.53;;;1.50;;
68633;SDS011;55625;47.072;22.192;2023-11-21T01:06:28;2.10;;;0.82;;
68633;SDS011;55625;47.072;22.192;2023-11-21T01:08:55;1.13;;;0.63;;
68633;SDS011;55625;47.072;22.192;2023-11-21T01:11:20;1.67;;;1.27;;
68633;SDS011;55625;47.072;22.192;2023-11-21T01:13:46;3.92;;;1.88;;
68633;SDS011;55625;47.072;22.192;2023-11-21T01:16:12;1.02;;;0.28;;
68633;SDS011;55625;47.072;22.192;2023-11-21T01:18:38;3.28;;;1.30;;
68633;SDS011;55625;47.072;22.192;2023-11-21T01:21:04;1.50;;;0.97;;
68633;SDS011;55625;47.072;22.192;2023-11-21T01:23:30;1.60;;;0.77;;
68633;SDS011;55625;47.072;22.192;2023-11-21T01:25:56;2.22;;;0.95;;
68633;SDS011;55625;47.072;22.192;2023-11-21T01:28:22;1.90;;;0.88;;
68633;SDS011;55625;47.072;22.192;2023-11-21T01:30:48;1.20;;;0.60;;
68633;SDS011;55625;47.072;22.192;2023-11-21T01:33:15;2.25;;;0.90;;
68633;SDS011;55625;47.072;22.192;2023-11-21T01:35:41;1.30;;;0.77;;
68633;SDS011;55625;47.072;22.192;2023-11-21T01:38:07;1.40;;;0.60;;
68633;SDS011;55625;47.072;22.192;2023-11-21T01:40:33;2.43;;;0.70;;
68633;SDS011;55625;47.072;22.192;2023-11-21T01:43:00;3.80;;;2.03;;
68633;SDS011;55625;47.072;22.192;2023-11-21T01:45:29;1.35;;;0.82;;
68633;SDS011;55625;47.072;22.192;2023-11-21T01:47:59;0.93;;;0.30;;
68633;SDS011;55625;47.072;22.192;2023-11-21T01:50:26;2.75;;;2.10;;
68633;SDS011;55625;47.072;22.192;2023-11-21T01:52:51;2.30;;;1.83;;
68633;SDS011;55625;47.072;22.192;2023-11-21T01:55:18;4.35;;;1.23;;
68633;SDS011;55625;47.072;22.192;2023-11-21T01:57:44;2.42;;;1.85;;
68633;SDS011;55625;47.072;22.192;2023-11-21T02:00:11;1.58;;;1.02;;
68633;SDS011;55625;47.072;22.192;2023-11-21T02:02:42;3.63;;;1.63;;
68633;SDS011;55625;47.072;22.192;2023-11-21T02:05:12;2.80;;;1.90;;
68633;SDS011;55625;47.072;22.192;2023-11-21T02:07:43;1.20;;;0.45;;
68633;SDS011;55625;47.072;22.192;2023-11-21T02:10:10;1.88;;;1.30;;
68633;SDS011;55625;47.072;22.192;2023-11-21T02:12:43;1.10;;;0.30;;
68633;SDS011;55625;47.072;22.192;2023-11-21T02:15:12;8.40;;;1.95;;
68633;SDS011;55625;47.072;22.192;2023-11-21T02:17:45;1.10;;;0.40;;
68633;SDS011;55625;47.072;22.192;2023-11-21T02:20:12;1.35;;;0.77;;
68633;SDS011;55625;47.072;22.192;2023-11-21T02:22:43;1.35;;;0.82;;
68633;SDS011;55625;47.072;22.192;2023-11-21T02:25:23;2.85;;;1.13;;
68633;SDS011;55625;47.072;22.192;2023-11-21T02:27:54;1.20;;;0.40;;
68633;SDS011;55625;47.072;22.192;2023-11-21T02:30:21;2.17;;;1.63;;
68633;SDS011;55625;47.072;22.192;2023-11-21T02:32:49;2.03;;;1.80;;
68633;SDS011;55625;47.072;22.192;2023-11-21T02:35:18;1.92;;;1.08;;
68633;SDS011;55625;47.072;22.192;2023-11-21T02:37:46;1.15;;;0.68;;
68633;SDS011;55625;47.072;22.192;2023-11-21T02:40:13;4.32;;;1.88;;
68633;SDS011;55625;47.072;22.192;2023-11-21T02:42:43;1.40;;;0.83;;
68633;SDS011;55625;47.072;22.192;2023-11-21T02:45:09;1.67;;;1.40;;
68633;SDS011;55625;47.072;22.192;2023-11-21T02:47:39;2.33;;;1.63;;
68633;SDS011;55625;47.072;22.192;2023-11-21T02:50:05;1.40;;;0.93;;
68633;SDS011;55625;47.072;22.192;2023-11-21T02:52:35;3.67;;;1.33;;
68633;SDS011;55625;47.072;22.192;2023-11-21T02:55:02;1.35;;;0.57;;
68633;SDS011;55625;47.072;22.192;2023-11-21T02:57:28;1.00;;;0.43;;
68633;SDS011;55625;47.072;22.192;2023-11-21T02:59:54;4.93;;;1.35;;
68633;SDS011;55625;47.072;22.192;2023-11-21T03:02:20;2.10;;;0.97;;
68633;SDS011;55625;47.072;22.192;2023-11-21T03:04:47;1.17;;;0.50;;
68633;SDS011;55625;47.072;22.192;2023-11-21T03:07:16;1.90;;;1.08;;
68633;SDS011;55625;47.072;22.192;2023-11-21T03:09:44;1.60;;;0.60;;
68633;SDS011;55625;47.072;22.192;2023-11-21T03:12:10;1.52;;;0.90;;
68633;SDS011;55625;47.072;22.192;2023-11-21T03:14:40;1.10;;;0.47;;
68633;SDS011;55625;47.072;22.192;2023-11-21T03:17:06;1.30;;;0.70;;
68633;SDS011;55625;47.072;22.192;2023-11-21T03:19:32;1.55;;;0.77;;
68633;SDS011;55625;47.072;22.192;2023-11-21T03:21:58;2.30;;;1.93;;
68633;SDS011;55625;47.072;22.192;2023-11-21T03:24:24;2.03;;;0.95;;
68633;SDS011;55625;47.072;22.192;2023-11-21T03:26:51;4.25;;;1.80;;
68633;SDS011;55625;47.072;22.192;2023-11-21T03:29:17;1.27;;;0.57;;
68633;SDS011;55625;47.072;22.192;2023-11-21T03:31:43;2.03;;;1.13;;
68633;SDS011;55625;47.072;22.192;2023-11-21T03:34:14;1.92;;;1.55;;
68633;SDS011;55625;47.072;22.192;2023-11-21T03:36:50;1.85;;;1.10;;
68633;SDS011;55625;47.072;22.192;2023-11-21T03:39:17;1.42;;;0.82;;
68633;SDS011;55625;47.072;22.192;2023-11-21T03:41:42;4.30;;;1.07;;
68633;SDS011;55625;47.072;22.192;2023-11-21T03:44:08;2.70;;;1.25;;
68633;SDS011;55625;47.072;22.192;2023-11-21T03:46:35;2.22;;;1.25;;
68633;SDS011;55625;47.072;22.192;2023-11-21T03:49:01;1.57;;;0.87;;
68633;SDS011;55625;47.072;22.192;2023-11-21T03:51:27;1.20;;;0.60;;
68633;SDS011;55625;47.072;22.192;2023-11-21T03:53:53;2.13;;;1.20;;
68633;SDS011;55625;47.072;22.192;2023-11-21T03:56:19;1.48;;;0.98;;
68633;SDS011;55625;47.072;22.192;2023-11-21T03:58:47;2.20;;;1.70;;
68633;SDS011;55625;47.072;22.192;2023-11-21T04:01:23;1.80;;;1.15;;
68633;SDS011;55625;47.072;22.192;2023-11-21T04:03:50;1.90;;;0.88;;
68633;SDS011;55625;47.072;22.192;2023-11-21T04:06:17;6.43;;;1.88;;
68633;SDS011;55625;47.072;22.192;2023-11-21T04:08:43;1.23;;;0.50;;
68633;SDS011;55625;47.072;22.192;2023-11-21T04:11:10;2.27;;;1.10;;
68633;SDS011;55625;47.072;22.192;2023-11-21T04:13:39;3.05;;;2.00;;
68633;SDS011;55625;47.072;22.192;2023-11-21T04:16:06;5.03;;;1.90;;
68633;SDS011;55625;47.072;22.192;2023-11-21T04:18:33;3.08;;;2.25;;
68633;SDS011;55625;47.072;22.192;2023-11-21T04:21:01;2.17;;;0.85;;
68633;SDS011;55625;47.072;22.192;2023-11-21T04:23:28;1.20;;;0.63;;
68633;SDS011;55625;47.072;22.192;2023-11-21T04:25:55;2.80;;;1.00;;
68633;SDS011;55625;47.072;22.192;2023-11-21T04:28:22;2.00;;;1.27;;
68633;SDS011;55625;47.072;22.192;2023-11-21T04:30:49;3.25;;;1.23;;
68633;SDS011;55625;47.072;22.192;2023-11-21T04:33:15;2.35;;;1.27;;
68633;SDS011;55625;47.072;22.192;2023-11-21T04:35:42;1.30;;;0.73;;
68633;SDS011;55625;47.072;22.192;2023-11-21T04:38:07;3.08;;;2.30;;
68633;SDS011;55625;47.072;22.192;2023-11-21T04:40:33;2.33;;;1.80;;
68633;SDS011;55625;47.072;22.192;2023-11-21T04:42:59;5.57;;;2.07;;
68633;SDS011;55625;47.072;22.192;2023-11-21T04:45:26;1.95;;;1.13;;
68633;SDS011;55625;47.072;22.192;2023-11-21T04:47:52;10.85;;;1.85;;
68633;SDS011;55625;47.072;22.192;2023-11-21T04:50:18;3.20;;;2.65;;
68633;SDS011;55625;47.072;22.192;2023-11-21T04:52:44;5.57;;;2.87;;
68633;SDS011;55625;47.072;22.192;2023-11-21T04:55:10;3.67;;;3.28;;
68633;SDS011;55625;47.072;22.192;2023-11-21T04:57:36;4.45;;;3.38;;
68633;SDS011;55625;47.072;22.192;2023-11-21T05:00:02;1.92;;;1.33;;
68633;SDS011;55625;47.072;22.192;2023-11-21T05:02:31;4.70;;;3.37;;
68633;SDS011;55625;47.072;22.192;2023-11-21T05:04:59;2.28;;;1.83;;
68633;SDS011;55625;47.072;22.192;2023-11-21T05:07:25;3.25;;;2.67;;
68633;SDS011;55625;47.072;22.192;2023-11-21T05:09:54;2.30;;;1.33;;
68633;SDS011;55625;47.072;22.192;2023-11-21T05:12:21;4.75;;;2.72;;
68633;SDS011;55625;47.072;22.192;2023-11-21T05:14:49;2.73;;;2.53;;
68633;SDS011;55625;47.072;22.192;2023-11-21T05:17:16;3.50;;;1.80;;
68633;SDS011;55625;47.072;22.192;2023-11-21T05:19:42;6.22;;;3.38;;
68633;SDS011;55625;47.072;22.192;2023-11-21T05:22:11;3.92;;;3.38;;
68633;SDS011;55625;47.072;22.192;2023-11-21T05:24:37;14.83;;;4.53;;
68633;SDS011;55625;47.072;22.192;2023-11-21T05:27:06;5.30;;;3.75;;
68633;SDS011;55625;47.072;22.192;2023-11-21T05:29:31;4.63;;;3.03;;
68633;SDS011;55625;47.072;22.192;2023-11-21T05:31:57;6.30;;;3.37;;
68633;SDS011;55625;47.072;22.192;2023-11-21T05:34:23;6.93;;;3.33;;
68633;SDS011;55625;47.072;22.192;2023-11-21T05:36:50;2.60;;;2.38;;
68633;SDS011;55625;47.072;22.192;2023-11-21T05:39:16;5.80;;;2.67;;
68633;SDS011;55625;47.072;22.192;2023-11-21T05:41:45;3.17;;;2.37;;
68633;SDS011;55625;47.072;22.192;2023-11-21T05:44:11;2.25;;;1.35;;
68633;SDS011;55625;47.072;22.192;2023-11-21T05:46:39;2.20;;;1.70;;
68633;SDS011;55625;47.072;22.192;2023-11-21T05:49:08;7.22;;;2.65;;
68633;SDS011;55625;47.072;22.192;2023-11-21T05:51:34;1.63;;;0.95;;
68633;SDS011;55625;47.072;22.192;2023-11-21T05:53:59;1.70;;;1.13;;
68633;SDS011;55625;47.072;22.192;2023-11-21T05:56:25;1.73;;;1.33;;
68633;SDS011;55625;47.072;22.192;2023-11-21T05:58:51;2.10;;;1.73;;
68633;SDS011;55625;47.072;22.192;2023-11-21T06:01:17;2.65;;;1.98;;
68633;SDS011;55625;47.072;22.192;2023-11-21T06:03:43;5.57;;;2.50;;
68633;SDS011;55625;47.072;22.192;2023-11-21T06:06:09;3.43;;;3.03;;
68633;SDS011;55625;47.072;22.192;2023-11-21T06:08:35;1.10;;;0.32;;
68633;SDS011;55625;47.072;22.192;2023-11-21T06:11:01;7.50;;;2.03;;
68633;SDS011;55625;47.072;22.192;2023-11-21T06:13:26;0.98;;;0.40;;
68633;SDS011;55625;47.072;22.192;2023-11-21T06:15:52;5.13;;;1.37;;
68633;SDS011;55625;47.072;22.192;2023-11-21T06:18:18;4.57;;;1.17;;
68633;SDS011;55625;47.072;22.192;2023-11-21T06:20:47;2.22;;;1.40;;
68633;SDS011;55625;47.072;22.192;2023-11-21T06:23:13;1.70;;;1.52;;
68633;SDS011;55625;47.072;22.192;2023-11-21T06:25:39;2.03;;;1.27;;
68633;SDS011;55625;47.072;22.192;2023-11-21T06:28:05;3.20;;;1.23;;
68633;SDS011;55625;47.072;22.192;2023-11-21T06:30:31;1.48;;;0.77;;
68633;SDS011;55625;47.072;22.192;2023-11-21T06:32:57;2.07;;;1.10;;
68633;SDS011;55625;47.072;22.192;2023-11-21T06:35:24;4.60;;;1.33;;
68633;SDS011;55625;47.072;22.192;2023-11-21T06:37:52;2.08;;;1.38;;
68633;SDS011;55625;47.072;22.192;2023-11-21T06:40:18;3.65;;;2.35;;
68633;SDS011;55625;47.072;22.192;2023-11-21T06:42:44;2.17;;;1.83;;
68633;SDS011;55625;47.072;22.192;2023-11-21T06:45:12;5.93;;;3.08;;
68633;SDS011;55625;47.072;22.192;2023-11-21T06:47:38;2.63;;;1.35;;
68633;SDS011;55625;47.072;22.192;2023-11-21T06:50:04;3.03;;;1.85;;
68633;SDS011;55625;47.072;22.192;2023-11-21T06:52:32;1.58;;;1.23;;
68633;SDS011;55625;47.072;22.192;2023-11-21T06:54:58;4.20;;;2.53;;
68633;SDS011;55625;47.072;22.192;2023-11-21T06:57:23;3.25;;;2.50;;
68633;SDS011;55625;47.072;22.192;2023-11-21T06:59:49;2.80;;;2.20;;
68633;SDS011;55625;47.072;22.192;2023-11-21T07:02:15;7.40;;;3.77;;
68633;SDS011;55625;47.072;22.192;2023-11-21T07:04:44;5.70;;;4.07;;
68633;SDS011;55625;47.072;22.192;2023-11-21T07:07:11;5.38;;;4.40;;
68633;SDS011;55625;47.072;22.192;2023-11-21T07:09:37;3.30;;;2.92;;
68633;SDS011;55625;47.072;22.192;2023-11-21T07:12:04;7.63;;;2.60;;
68633;SDS011;55625;47.072;22.192;2023-11-21T07:14:33;6.37;;;2.00;;
68633;SDS011;55625;47.072;22.192;2023-11-21T07:16:59;6.57;;;3.78;;
68633;SDS011;55625;47.072;22.192;2023-11-21T07:19:25;7.70;;;4.63;;
68633;SDS011;55625;47.072;22.192;2023-11-21T07:21:51;5.97;;;4.82;;
68633;SDS011;55625;47.072;22.192;2023-11-21T07:24:17;6.13;;;4.23;;
68633;SDS011;55625;47.072;22.192;2023-11-21T07:26:43;7.10;;;4.43;;
68633;SDS011;55625;47.072;22.192;2023-11-21T07:29:09;7.93;;;4.70;;
68633;SDS011;55625;47.072;22.192;2023-11-21T07:31:37;10.77;;;5.72;;
68633;SDS011;55625;47.072;22.192;2023-11-21T07:34:03;4.90;;;4.10;;
68633;SDS011;55625;47.072;22.192;2023-11-21T07:36:29;5.93;;;3.13;;
68633;SDS011;55625;47.072;22.192;2023-11-21T07:38:55;9.07;;;5.78;;
68633;SDS011;55625;47.072;22.192;2023-11-21T07:41:20;6.00;;;3.43;;
68633;SDS011;55625;47.072;22.192;2023-11-21T07:43:47;1.70;;;1.00;;
68633;SDS011;55625;47.072;22.192;2023-11-21T07:46:13;1.65;;;0.90;;
68633;SDS011;55625;47.072;22.192;2023-11-21T07:48:39;3.03;;;2.25;;
68633;SDS011;55625;47.072;22.192;2023-11-21T07:51:07;4.03;;;1.35;;
68633;SDS011;55625;47.072;22.192;2023-11-21T07:53:35;2.60;;;1.53;;
68633;SDS011;55625;47.072;22.192;2023-11-21T07:56:04;4.05;;;2.03;;
68633;SDS011;55625;47.072;22.192;2023-11-21T07:58:32;2.05;;;1.25;;
68633;SDS011;55625;47.072;22.192;2023-11-21T08:00:59;3.03;;;2.72;;
68633;SDS011;55625;47.072;22.192;2023-11-21T08:03:25;1.48;;;0.85;;
68633;SDS011;55625;47.072;22.192;2023-11-21T08:06:00;2.77;;;2.37;;
68633;SDS011;55625;47.072;22.192;2023-11-21T08:08:28;2.10;;;1.63;;
68633;SDS011;55625;47.072;22.192;2023-11-21T08:10:54;5.05;;;2.75;;
68633;SDS011;55625;47.072;22.192;2023-11-21T08:13:23;2.03;;;1.77;;
68633;SDS011;55625;47.072;22.192;2023-11-21T08:15:50;1.30;;;0.47;;
68633;SDS011;55625;47.072;22.192;2023-11-21T08:18:19;1.60;;;1.23;;
68633;SDS011;55625;47.072;22.192;2023-11-21T08:20:45;1.10;;;0.47;;
68633;SDS011;55625;47.072;22.192;2023-11-21T08:23:13;1.05;;;0.25;;
68633;SDS011;55625;47.072;22.192;2023-11-21T08:25:43;1.00;;;0.50;;
68633;SDS011;55625;47.072;22.192;2023-11-21T08:28:09;2.13;;;1.25;;
68633;SDS011;55625;47.072;22.192;2023-11-21T08:30:35;3.37;;;2.90;;
68633;SDS011;55625;47.072;22.192;2023-11-21T08:33:01;2.40;;;1.75;;
68633;SDS011;55625;47.072;22.192;2023-11-21T08:35:28;1.00;;;0.30;;
68633;SDS011;55625;47.072;22.192;2023-11-21T08:37:54;1.20;;;0.68;;
68633;SDS011;55625;47.072;22.192;2023-11-21T08:40:20;1.23;;;0.53;;
68633;SDS011;55625;47.072;22.192;2023-11-21T08:42:47;1.23;;;0.70;;
68633;SDS011;55625;47.072;22.192;2023-11-21T08:45:16;1.98;;;1.20;;
68633;SDS011;55625;47.072;22.192;2023-11-21T08:47:42;2.45;;;1.20;;
68633;SDS011;55625;47.072;22.192;2023-11-21T08:50:09;1.10;;;0.47;;
68633;SDS011;55625;47.072;22.192;2023-11-21T08:52:37;2.90;;;1.53;;
68633;SDS011;55625;47.072;22.192;2023-11-21T08:55:05;1.50;;;1.02;;
68633;SDS011;55625;47.072;22.192;2023-11-21T08:57:37;1.58;;;0.73;;
68633;SDS011;55625;47.072;22.192;2023-11-21T09:00:09;2.30;;;0.80;;
68633;SDS011;55625;47.072;22.192;2023-11-21T09:02:37;0.82;;;0.15;;
68633;SDS011;55625;47.072;22.192;2023-11-21T09:05:07;2.13;;;1.27;;
68633;SDS011;55625;47.072;22.192;2023-11-21T09:07:34;2.20;;;1.50;;
68633;SDS011;55625;47.072;22.192;2023-11-21T09:10:05;2.00;;;1.13;;
68633;SDS011;55625;47.072;22.192;2023-11-21T09:12:34;1.70;;;1.10;;
68633;SDS011;55625;47.072;22.192;2023-11-21T09:15:02;1.55;;;0.70;;
68633;SDS011;55625;47.072;22.192;2023-11-21T09:17:30;1.40;;;0.83;;
68633;SDS011;55625;47.072;22.192;2023-11-21T09:19:57;2.58;;;0.85;;
68633;SDS011;55625;47.072;22.192;2023-11-21T09:22:23;2.80;;;1.30;;
68633;SDS011;55625;47.072;22.192;2023-11-21T09:24:54;1.17;;;0.65;;
68633;SDS011;55625;47.072;22.192;2023-11-21T09:27:22;2.33;;;0.70;;
68633;SDS011;55625;47.072;22.192;2023-11-21T09:29:48;2.30;;;1.10;;
68633;SDS011;55625;47.072;22.192;2023-11-21T09:32:15;1.90;;;1.20;;
68633;SDS011;55625;47.072;22.192;2023-11-21T09:34:44;1.67;;;0.80;;
68633;SDS011;55625;47.072;22.192;2023-11-21T09:37:10;2.53;;;1.38;;
68633;SDS011;55625;47.072;22.192;2023-11-21T09:39:36;1.83;;;1.07;;
68633;SDS011;55625;47.072;22.192;2023-11-21T09:45:21;1.98;;;1.23;;
68633;SDS011;55625;47.072;22.192;2023-11-21T09:47:54;1.48;;;0.73;;
68633;SDS011;55625;47.072;22.192;2023-11-21T09:50:21;2.70;;;2.00;;
68633;SDS011;55625;47.072;22.192;2023-11-21T09:55:17;2.08;;;0.95;;
68633;SDS011;55625;47.072;22.192;2023-11-21T09:57:47;0.93;;;0.20;;
68633;SDS011;55625;47.072;22.192;2023-11-21T10:00:15;1.98;;;0.88;;
68633;SDS011;55625;47.072;22.192;2023-11-21T10:02:45;2.33;;;0.83;;
68633;SDS011;55625;47.072;22.192;2023-11-21T10:05:11;1.10;;;0.40;;
68633;SDS011;55625;47.072;22.192;2023-11-21T10:07:38;1.30;;;0.73;;
68633;SDS011;55625;47.072;22.192;2023-11-21T10:10:07;1.98;;;1.00;;
68633;SDS011;55625;47.072;22.192;2023-11-21T10:12:34;3.60;;;2.28;;
68633;SDS011;55625;47.072;22.192;2023-11-21T10:15:01;2.10;;;0.60;;
68633;SDS011;55625;47.072;22.192;2023-11-21T10:17:32;1.88;;;1.30;;
68633;SDS011;55625;47.072;22.192;2023-11-21T10:20:08;3.35;;;0.80;;
68633;SDS011;55625;47.072;22.192;2023-11-21T10:22:37;1.20;;;0.50;;
68633;SDS011;55625;47.072;22.192;2023-11-21T10:25:07;1.77;;;0.80;;
68633;SDS011;55625;47.072;22.192;2023-11-21T10:27:35;4.13;;;1.53;;
68633;SDS011;55625;47.072;22.192;2023-11-21T10:30:05;3.40;;;0.95;;
68633;SDS011;55625;47.072;22.192;2023-11-21T10:32:38;1.17;;;0.63;;
68633;SDS011;55625;47.072;22.192;2023-11-21T10:35:06;1.90;;;0.38;;
68633;SDS011;55625;47.072;22.192;2023-11-21T10:37:38;2.25;;;0.90;;
68633;SDS011;55625;47.072;22.192;2023-11-21T10:40:08;2.23;;;0.97;;
68633;SDS011;55625;47.072;22.192;2023-11-21T10:42:39;1.45;;;0.50;;
68633;SDS011;55625;47.072;22.192;2023-11-21T10:45:06;1.17;;;0.60;;
68633;SDS011;55625;47.072;22.192;2023-11-21T10:47:40;2.78;;;0.52;;
68633;SDS011;55625;47.072;22.192;2023-11-21T10:50:06;2.08;;;1.45;;
68633;SDS011;55625;47.072;22.192;2023-11-21T10:52:39;1.20;;;0.40;;
68633;SDS011;55625;47.072;22.192;2023-11-21T10:55:17;1.30;;;0.50;;
68633;SDS011;55625;47.072;22.192;2023-11-21T10:57:51;2.20;;;0.50;;
68633;SDS011;55625;47.072;22.192;2023-11-21T11:00:19;7.40;;;1.77;;
68633;SDS011;55625;47.072;22.192;2023-11-21T11:02:50;1.73;;;1.23;;
68633;SDS011;55625;47.072;22.192;2023-11-21T11:05:19;2.37;;;1.33;;
68633;SDS011;55625;47.072;22.192;2023-11-21T11:08:00;2.85;;;0.80;;
68633;SDS011;55625;47.072;22.192;2023-11-21T11:10:33;2.67;;;0.93;;
68633;SDS011;55625;47.072;22.192;2023-11-21T11:13:00;1.10;;;0.40;;
68633;SDS011;55625;47.072;22.192;2023-11-21T11:15:26;1.10;;;0.55;;
68633;SDS011;55625;47.072;22.192;2023-11-21T11:17:53;2.10;;;0.63;;
68633;SDS011;55625;47.072;22.192;2023-11-21T11:20:25;1.42;;;0.88;;
68633;SDS011;55625;47.072;22.192;2023-11-21T11:28:11;1.20;;;0.75;;
68633;SDS011;55625;47.072;22.192;2023-11-21T11:31:04;1.00;;;0.37;;
68633;SDS011;55625;47.072;22.192;2023-11-21T11:33:53;1.52;;;0.52;;
68633;SDS011;55625;47.072;22.192;2023-11-21T11:36:48;1.10;;;0.43;;
68633;SDS011;55625;47.072;22.192;2023-11-21T11:39:31;1.05;;;0.38;;
68633;SDS011;55625;47.072;22.192;2023-11-21T11:42:07;1.70;;;1.27;;
68633;SDS011;55625;47.072;22.192;2023-11-21T11:47:26;1.83;;;1.33;;
68633;SDS011;55625;47.072;22.192;2023-11-21T11:49:58;1.48;;;0.82;;
68633;SDS011;55625;47.072;22.192;2023-11-21T11:52:48;1.85;;;0.85;;
68633;SDS011;55625;47.072;22.192;2023-11-21T11:55:17;2.47;;;1.70;;
68633;SDS011;55625;47.072;22.192;2023-11-21T11:57:49;3.47;;;2.13;;
68633;SDS011;55625;47.072;22.192;2023-11-21T12:00:21;1.95;;;0.45;;
68633;SDS011;55625;47.072;22.192;2023-11-21T12:03:00;2.28;;;1.05;;
68633;SDS011;55625;47.072;22.192;2023-11-21T12:05:31;1.92;;;1.23;;
68633;SDS011;55625;47.072;22.192;2023-11-21T12:08:01;2.67;;;1.52;;
68633;SDS011;55625;47.072;22.192;2023-11-21T12:10:29;5.53;;;1.43;;
68633;SDS011;55625;47.072;22.192;2023-11-21T12:12:58;2.17;;;1.05;;
68633;SDS011;55625;47.072;22.192;2023-11-21T12:15:37;3.58;;;1.92;;
68633;SDS011;55625;47.072;22.192;2023-11-21T12:18:05;7.00;;;1.30;;
68633;SDS011;55625;47.072;22.192;2023-11-21T12:20:32;6.60;;;2.72;;
68633;SDS011;55625;47.072;22.192;2023-11-21T12:23:03;2.10;;;1.33;;
68633;SDS011;55625;47.072;22.192;2023-11-21T12:25:31;2.03;;;1.20;;
68633;SDS011;55625;47.072;22.192;2023-11-21T12:27:58;1.33;;;0.88;;
68633;SDS011;55625;47.072;22.192;2023-11-21T12:30:26;1.75;;;0.98;;
68633;SDS011;55625;47.072;22.192;2023-11-21T12:32:55;1.17;;;0.30;;
68633;SDS011;55625;47.072;22.192;2023-11-21T12:35:24;7.70;;;2.57;;
68633;SDS011;55625;47.072;22.192;2023-11-21T12:37:55;2.47;;;1.27;;
68633;SDS011;55625;47.072;22.192;2023-11-21T12:40:24;2.25;;;1.33;;
68633;SDS011;55625;47.072;22.192;2023-11-21T12:42:55;1.77;;;0.80;;
68633;SDS011;55625;47.072;22.192;2023-11-21T12:45:24;1.30;;;0.80;;
68633;SDS011;55625;47.072;22.192;2023-11-21T12:50:28;1.92;;;1.00;;
68633;SDS011;55625;47.072;22.192;2023-11-21T12:53:02;1.67;;;1.05;;
68633;SDS011;55625;47.072;22.192;2023-11-21T12:55:30;2.10;;;1.10;;
68633;SDS011;55625;47.072;22.192;2023-11-21T12:58:00;3.00;;;2.60;;
68633;SDS011;55625;47.072;22.192;2023-11-21T13:00:38;2.37;;;1.63;;
68633;SDS011;55625;47.072;22.192;2023-11-21T13:03:08;2.03;;;1.75;;
68633;SDS011;55625;47.072;22.192;2023-11-21T13:05:38;3.40;;;1.73;;
68633;SDS011;55625;47.072;22.192;2023-11-21T13:08:07;3.03;;;1.05;;
68633;SDS011;55625;47.072;22.192;2023-11-21T13:10:37;3.17;;;1.20;;
68633;SDS011;55625;47.072;22.192;2023-11-21T13:13:07;1.30;;;0.90;;
68633;SDS011;55625;47.072;22.192;2023-11-21T13:15:47;3.30;;;1.40;;
68633;SDS011;55625;47.072;22.192;2023-11-21T13:18:23;1.70;;;1.17;;
68633;SDS011;55625;47.072;22.192;2023-11-21T13:20:52;3.50;;;1.10;;
68633;SDS011;55625;47.072;22.192;2023-11-21T13:23:20;1.58;;;0.95;;
68633;SDS011;55625;47.072;22.192;2023-11-21T13:25:46;1.47;;;0.70;;
68633;SDS011;55625;47.072;22.192;2023-11-21T13:28:13;1.77;;;0.80;;
68633;SDS011;55625;47.072;22.192;2023-11-21T13:30:40;2.40;;;2.00;;
68633;SDS011;55625;47.072;22.192;2023-11-21T13:33:07;3.30;;;1.88;;
68633;SDS011;55625;47.072;22.192;2023-11-21T13:35:36;2.13;;;1.38;;
68633;SDS011;55625;47.072;22.192;2023-11-21T13:40:37;2.08;;;1.35;;
68633;SDS011;55625;47.072;22.192;2023-11-21T13:43:11;5.00;;;1.90;;
68633;SDS011;55625;47.072;22.192;2023-11-21T13:45:39;1.98;;;1.13;;
68633;SDS011;55625;47.072;22.192;2023-11-21T13:48:06;2.72;;;1.17;;
68633;SDS011;55625;47.072;22.192;2023-11-21T13:50:38;4.40;;;0.63;;
68633;SDS011;55625;47.072;22.192;2023-11-21T13:53:13;3.47;;;1.98;;
68633;SDS011;55625;47.072;22.192;2023-11-21T13:55:48;2.15;;;1.15;;
68633;SDS011;55625;47.072;22.192;2023-11-21T13:58:16;3.80;;;2.17;;
68633;SDS011;55625;47.072;22.192;2023-11-21T14:00:48;4.97;;;1.25;;
68633;SDS011;55625;47.072;22.192;2023-11-21T14:03:22;2.57;;;1.70;;
68633;SDS011;55625;47.072;22.192;2023-11-21T14:05:50;3.40;;;1.88;;
68633;SDS011;55625;47.072;22.192;2023-11-21T14:08:22;2.17;;;1.38;;
68633;SDS011;55625;47.072;22.192;2023-11-21T14:10:53;4.82;;;2.10;;
68633;SDS011;55625;47.072;22.192;2023-11-21T14:13:25;3.30;;;1.38;;
68633;SDS011;55625;47.072;22.192;2023-11-21T14:15:52;1.47;;;1.03;;
68633;SDS011;55625;47.072;22.192;2023-11-21T14:18:26;1.48;;;0.85;;
68633;SDS011;55625;47.072;22.192;2023-11-21T14:20:56;2.28;;;1.30;;
68633;SDS011;55625;47.072;22.192;2023-11-21T14:23:22;1.48;;;0.80;;
68633;SDS011;55625;47.072;22.192;2023-11-21T14:25:50;3.28;;;1.33;;
68633;SDS011;55625;47.072;22.192;2023-11-21T14:28:16;3.13;;;1.40;;
68633;SDS011;55625;47.072;22.192;2023-11-21T14:30:44;2.88;;;2.15;;
68633;SDS011;55625;47.072;22.192;2023-11-21T14:33:11;2.47;;;1.60;;
68633;SDS011;55625;47.072;22.192;2023-11-21T14:35:38;4.38;;;2.50;;
68633;SDS011;55625;47.072;22.192;2023-11-21T14:38:04;3.17;;;2.22;;
68633;SDS011;55625;47.072;22.192;2023-11-21T14:40:33;2.37;;;1.90;;
68633;SDS011;55625;47.072;22.192;2023-11-21T14:43:01;3.92;;;2.53;;
68633;SDS011;55625;47.072;22.192;2023-11-21T14:45:31;3.00;;;2.17;;
68633;SDS011;55625;47.072;22.192;2023-11-21T14:48:00;5.85;;;3.28;;
68633;SDS011;55625;47.072;22.192;2023-11-21T14:50:40;7.40;;;3.78;;
68633;SDS011;55625;47.072;22.192;2023-11-21T14:53:07;2.43;;;1.43;;
68633;SDS011;55625;47.072;22.192;2023-11-21T14:55:34;6.05;;;3.58;;
68633;SDS011;55625;47.072;22.192;2023-11-21T14:58:16;5.95;;;2.63;;